sensor_id;sensor_type;location;lat;lon;timestamp;P1;durP1;ratioP1;P2;durP2;ratioP2
15482;SDS011;7843;50.330;7.312;2022-09-09T00:01:37;3.35;;;1.10;;
15482;SDS011;7843;50.330;7.312;2022-09-09T00:04:15;3.10;;;0.88;;
15482;SDS011;7843;50.330;7.312;2022-09-09T00:06:55;3.75;;;1.00;;
15482;SDS011;7843;50.330;7.312;2022-09-09T00:09:49;2.67;;;0.85;;
15482;SDS011;7843;50.330;7.312;2022-09-09T00:12:27;3.95;;;1.20;;
15482;SDS011;7843;50.330;7.312;2022-09-09T00:15:07;3.47;;;0.90;;
15482;SDS011;7843;50.330;7.312;2022-09-09T00:18:07;3.25;;;0.90;;
15482;SDS011;7843;50.330;7.312;2022-09-09T00:20:48;3.25;;;0.82;;
15482;SDS011;7843;50.330;7.312;2022-09-09T00:23:37;5.03;;;1.27;;
15482;SDS011;7843;50.330;7.312;2022-09-09T00:31:35;2.83;;;0.95;;
15482;SDS011;7843;50.330;7.312;2022-09-09T00:36:52;3.97;;;0.85;;
15482;SDS011;7843;50.330;7.312;2022-09-09T00:39:37;3.38;;;1.05;;
15482;SDS011;7843;50.330;7.312;2022-09-09T00:42:14;1.92;;;1.10;;
15482;SDS011;7843;50.330;7.312;2022-09-09T00:44:56;3.95;;;0.80;;
15482;SDS011;7843;50.330;7.312;2022-09-09T00:56:20;6.47;;;2.10;;
15482;SDS011;7843;50.330;7.312;2022-09-09T00:58:58;2.15;;;0.80;;
15482;SDS011;7843;50.330;7.312;2022-09-09T01:01:47;1.85;;;0.70;;
15482;SDS011;7843;50.330;7.312;2022-09-09T01:04:16;2.67;;;0.70;;
15482;SDS011;7843;50.330;7.312;2022-09-09T01:06:52;3.05;;;0.90;;
15482;SDS011;7843;50.330;7.312;2022-09-09T01:12:38;2.50;;;0.93;;
15482;SDS011;7843;50.330;7.312;2022-09-09T01:15:12;1.63;;;0.63;;
15482;SDS011;7843;50.330;7.312;2022-09-09T01:23:01;3.47;;;0.68;;
15482;SDS011;7843;50.330;7.312;2022-09-09T01:28:27;3.45;;;1.15;;
15482;SDS011;7843;50.330;7.312;2022-09-09T01:30:55;3.00;;;0.80;;
15482;SDS011;7843;50.330;7.312;2022-09-09T01:33:23;2.42;;;0.75;;
15482;SDS011;7843;50.330;7.312;2022-09-09T01:35:52;2.50;;;0.60;;
15482;SDS011;7843;50.330;7.312;2022-09-09T01:38:23;3.50;;;0.70;;
15482;SDS011;7843;50.330;7.312;2022-09-09T01:40:51;3.70;;;1.05;;
15482;SDS011;7843;50.330;7.312;2022-09-09T01:43:22;2.03;;;0.80;;
15482;SDS011;7843;50.330;7.312;2022-09-09T01:45:52;3.03;;;0.80;;
15482;SDS011;7843;50.330;7.312;2022-09-09T01:48:22;4.47;;;0.90;;
15482;SDS011;7843;50.330;7.312;2022-09-09T01:50:50;3.20;;;0.70;;
15482;SDS011;7843;50.330;7.312;2022-09-09T01:53:19;2.58;;;0.90;;
15482;SDS011;7843;50.330;7.312;2022-09-09T01:55:53;2.93;;;0.70;;
15482;SDS011;7843;50.330;7.312;2022-09-09T01:58:42;2.10;;;0.68;;
15482;SDS011;7843;50.330;7.312;2022-09-09T02:04:03;4.30;;;1.23;;
15482;SDS011;7843;50.330;7.312;2022-09-09T02:06:39;3.60;;;0.68;;
15482;SDS011;7843;50.330;7.312;2022-09-09T02:09:07;3.03;;;0.80;;
15482;SDS011;7843;50.330;7.312;2022-09-09T02:11:38;3.47;;;0.90;;
15482;SDS011;7843;50.330;7.312;2022-09-09T02:14:15;2.75;;;0.60;;
15482;SDS011;7843;50.330;7.312;2022-09-09T02:16:50;3.47;;;0.70;;
15482;SDS011;7843;50.330;7.312;2022-09-09T02:19:32;3.20;;;0.77;;
15482;SDS011;7843;50.330;7.312;2022-09-09T02:22:03;3.65;;;0.75;;
15482;SDS011;7843;50.330;7.312;2022-09-09T02:24:32;4.85;;;0.70;;
15482;SDS011;7843;50.330;7.312;2022-09-09T02:27:03;4.47;;;0.90;;
15482;SDS011;7843;50.330;7.312;2022-09-09T02:29:39;3.75;;;1.23;;
15482;SDS011;7843;50.330;7.312;2022-09-09T02:32:20;3.38;;;0.90;;
15482;SDS011;7843;50.330;7.312;2022-09-09T02:34:53;3.83;;;1.00;;
15482;SDS011;7843;50.330;7.312;2022-09-09T02:37:31;4.57;;;1.00;;
15482;SDS011;7843;50.330;7.312;2022-09-09T02:40:08;2.05;;;0.85;;
15482;SDS011;7843;50.330;7.312;2022-09-09T02:42:40;4.22;;;0.70;;
15482;SDS011;7843;50.330;7.312;2022-09-09T02:45:12;5.25;;;1.30;;
15482;SDS011;7843;50.330;7.312;2022-09-09T02:47:45;2.38;;;0.80;;
15482;SDS011;7843;50.330;7.312;2022-09-09T02:50:22;2.65;;;0.82;;
15482;SDS011;7843;50.330;7.312;2022-09-09T02:55:38;3.83;;;1.10;;
15482;SDS011;7843;50.330;7.312;2022-09-09T02:58:09;3.03;;;0.85;;
15482;SDS011;7843;50.330;7.312;2022-09-09T03:00:38;3.33;;;0.90;;
15482;SDS011;7843;50.330;7.312;2022-09-09T03:03:07;2.03;;;0.80;;
15482;SDS011;7843;50.330;7.312;2022-09-09T03:05:35;2.75;;;0.73;;
15482;SDS011;7843;50.330;7.312;2022-09-09T03:08:03;3.15;;;0.85;;
15482;SDS011;7843;50.330;7.312;2022-09-09T03:10:32;5.00;;;1.25;;
15482;SDS011;7843;50.330;7.312;2022-09-09T03:12:59;1.60;;;0.70;;
15482;SDS011;7843;50.330;7.312;2022-09-09T03:15:26;2.97;;;0.65;;
15482;SDS011;7843;50.330;7.312;2022-09-09T03:17:56;2.70;;;0.60;;
15482;SDS011;7843;50.330;7.312;2022-09-09T03:20:24;3.40;;;0.82;;
15482;SDS011;7843;50.330;7.312;2022-09-09T03:22:52;5.47;;;1.07;;
15482;SDS011;7843;50.330;7.312;2022-09-09T03:25:20;3.67;;;0.80;;
15482;SDS011;7843;50.330;7.312;2022-09-09T03:27:50;3.50;;;0.93;;
15482;SDS011;7843;50.330;7.312;2022-09-09T03:30:20;3.22;;;0.88;;
15482;SDS011;7843;50.330;7.312;2022-09-09T03:32:48;3.05;;;0.93;;
15482;SDS011;7843;50.330;7.312;2022-09-09T03:35:15;3.83;;;1.00;;
15482;SDS011;7843;50.330;7.312;2022-09-09T03:37:42;3.63;;;1.20;;
15482;SDS011;7843;50.330;7.312;2022-09-09T03:40:09;3.95;;;0.82;;
15482;SDS011;7843;50.330;7.312;2022-09-09T03:42:36;2.83;;;0.80;;
15482;SDS011;7843;50.330;7.312;2022-09-09T03:45:04;3.08;;;0.90;;
15482;SDS011;7843;50.330;7.312;2022-09-09T03:47:32;3.80;;;0.95;;
15482;SDS011;7843;50.330;7.312;2022-09-09T03:49:59;2.97;;;0.80;;
15482;SDS011;7843;50.330;7.312;2022-09-09T03:52:26;5.10;;;1.17;;
15482;SDS011;7843;50.330;7.312;2022-09-09T03:54:53;2.80;;;0.80;;
15482;SDS011;7843;50.330;7.312;2022-09-09T03:57:20;2.40;;;0.70;;
15482;SDS011;7843;50.330;7.312;2022-09-09T03:59:47;2.60;;;1.02;;
15482;SDS011;7843;50.330;7.312;2022-09-09T04:02:14;2.47;;;0.90;;
15482;SDS011;7843;50.330;7.312;2022-09-09T04:04:41;3.78;;;1.00;;
15482;SDS011;7843;50.330;7.312;2022-09-09T04:07:08;3.45;;;0.90;;
15482;SDS011;7843;50.330;7.312;2022-09-09T04:09:34;3.90;;;1.10;;
15482;SDS011;7843;50.330;7.312;2022-09-09T04:12:01;3.28;;;0.80;;
15482;SDS011;7843;50.330;7.312;2022-09-09T04:14:28;2.80;;;0.90;;
15482;SDS011;7843;50.330;7.312;2022-09-09T04:16:55;4.05;;;0.98;;
15482;SDS011;7843;50.330;7.312;2022-09-09T04:19:23;2.88;;;1.00;;
15482;SDS011;7843;50.330;7.312;2022-09-09T04:21:50;3.55;;;0.82;;
15482;SDS011;7843;50.330;7.312;2022-09-09T04:24:17;2.90;;;0.90;;
15482;SDS011;7843;50.330;7.312;2022-09-09T04:26:45;2.45;;;0.80;;
15482;SDS011;7843;50.330;7.312;2022-09-09T04:29:12;2.47;;;0.80;;
15482;SDS011;7843;50.330;7.312;2022-09-09T04:31:39;3.47;;;1.00;;
15482;SDS011;7843;50.330;7.312;2022-09-09T04:34:08;3.85;;;0.90;;
15482;SDS011;7843;50.330;7.312;2022-09-09T04:36:35;4.30;;;1.00;;
15482;SDS011;7843;50.330;7.312;2022-09-09T04:39:02;5.47;;;0.88;;
15482;SDS011;7843;50.330;7.312;2022-09-09T04:41:29;5.10;;;1.30;;
15482;SDS011;7843;50.330;7.312;2022-09-09T04:43:57;2.78;;;0.95;;
15482;SDS011;7843;50.330;7.312;2022-09-09T04:46:24;4.47;;;0.90;;
15482;SDS011;7843;50.330;7.312;2022-09-09T04:48:52;3.30;;;1.20;;
15482;SDS011;7843;50.330;7.312;2022-09-09T04:51:19;5.50;;;1.30;;
15482;SDS011;7843;50.330;7.312;2022-09-09T04:53:46;6.60;;;0.90;;
15482;SDS011;7843;50.330;7.312;2022-09-09T04:56:14;2.87;;;0.83;;
15482;SDS011;7843;50.330;7.312;2022-09-09T04:58:42;3.33;;;0.98;;
15482;SDS011;7843;50.330;7.312;2022-09-09T05:01:16;4.57;;;1.10;;
15482;SDS011;7843;50.330;7.312;2022-09-09T05:03:44;3.88;;;1.02;;
15482;SDS011;7843;50.330;7.312;2022-09-09T05:06:15;4.50;;;1.30;;
15482;SDS011;7843;50.330;7.312;2022-09-09T05:08:43;2.65;;;0.90;;
15482;SDS011;7843;50.330;7.312;2022-09-09T05:13:45;5.05;;;1.33;;
15482;SDS011;7843;50.330;7.312;2022-09-09T05:16:12;3.47;;;1.10;;
15482;SDS011;7843;50.330;7.312;2022-09-09T05:18:40;3.35;;;1.10;;
15482;SDS011;7843;50.330;7.312;2022-09-09T05:21:09;3.72;;;1.00;;
15482;SDS011;7843;50.330;7.312;2022-09-09T05:23:36;5.28;;;1.42;;
15482;SDS011;7843;50.330;7.312;2022-09-09T05:26:04;3.00;;;0.70;;
15482;SDS011;7843;50.330;7.312;2022-09-09T05:28:33;4.10;;;0.95;;
15482;SDS011;7843;50.330;7.312;2022-09-09T05:31:02;2.88;;;1.00;;
15482;SDS011;7843;50.330;7.312;2022-09-09T05:33:31;5.10;;;1.10;;
15482;SDS011;7843;50.330;7.312;2022-09-09T05:35:58;1.83;;;1.00;;
15482;SDS011;7843;50.330;7.312;2022-09-09T05:38:27;6.18;;;1.30;;
15482;SDS011;7843;50.330;7.312;2022-09-09T05:40:55;4.35;;;1.00;;
15482;SDS011;7843;50.330;7.312;2022-09-09T05:43:25;4.60;;;1.40;;
15482;SDS011;7843;50.330;7.312;2022-09-09T05:46:00;3.45;;;1.48;;
15482;SDS011;7843;50.330;7.312;2022-09-09T05:48:28;6.82;;;1.10;;
15482;SDS011;7843;50.330;7.312;2022-09-09T05:50:56;4.35;;;1.38;;
15482;SDS011;7843;50.330;7.312;2022-09-09T05:53:23;4.93;;;1.00;;
15482;SDS011;7843;50.330;7.312;2022-09-09T05:55:50;4.72;;;1.40;;
15482;SDS011;7843;50.330;7.312;2022-09-09T05:58:16;5.65;;;1.15;;
15482;SDS011;7843;50.330;7.312;2022-09-09T06:00:43;4.72;;;1.40;;
15482;SDS011;7843;50.330;7.312;2022-09-09T06:03:10;4.18;;;1.20;;
15482;SDS011;7843;50.330;7.312;2022-09-09T06:05:38;3.47;;;1.02;;
15482;SDS011;7843;50.330;7.312;2022-09-09T06:08:04;7.03;;;1.10;;
15482;SDS011;7843;50.330;7.312;2022-09-09T06:10:31;3.73;;;1.00;;
15482;SDS011;7843;50.330;7.312;2022-09-09T06:12:58;3.75;;;1.27;;
15482;SDS011;7843;50.330;7.312;2022-09-09T06:15:24;5.38;;;1.20;;
15482;SDS011;7843;50.330;7.312;2022-09-09T06:17:54;6.77;;;1.10;;
15482;SDS011;7843;50.330;7.312;2022-09-09T06:20:21;4.47;;;0.98;;
15482;SDS011;7843;50.330;7.312;2022-09-09T06:22:48;3.50;;;0.95;;
15482;SDS011;7843;50.330;7.312;2022-09-09T06:25:15;3.38;;;0.88;;
15482;SDS011;7843;50.330;7.312;2022-09-09T06:27:42;6.13;;;1.10;;
15482;SDS011;7843;50.330;7.312;2022-09-09T06:30:08;7.53;;;1.48;;
15482;SDS011;7843;50.330;7.312;2022-09-09T06:32:36;3.63;;;0.82;;
15482;SDS011;7843;50.330;7.312;2022-09-09T06:35:03;4.22;;;1.10;;
15482;SDS011;7843;50.330;7.312;2022-09-09T06:37:30;3.72;;;0.93;;
15482;SDS011;7843;50.330;7.312;2022-09-09T06:39:57;6.63;;;1.13;;
15482;SDS011;7843;50.330;7.312;2022-09-09T06:42:24;4.10;;;1.00;;
15482;SDS011;7843;50.330;7.312;2022-09-09T06:44:50;4.72;;;1.23;;
15482;SDS011;7843;50.330;7.312;2022-09-09T06:47:18;3.63;;;0.93;;
15482;SDS011;7843;50.330;7.312;2022-09-09T06:49:45;5.75;;;1.10;;
15482;SDS011;7843;50.330;7.312;2022-09-09T06:52:13;4.75;;;1.27;;
15482;SDS011;7843;50.330;7.312;2022-09-09T06:54:40;4.95;;;1.05;;
15482;SDS011;7843;50.330;7.312;2022-09-09T06:57:06;6.25;;;1.13;;
15482;SDS011;7843;50.330;7.312;2022-09-09T06:59:46;3.78;;;1.05;;
15482;SDS011;7843;50.330;7.312;2022-09-09T07:02:12;5.27;;;1.10;;
15482;SDS011;7843;50.330;7.312;2022-09-09T07:04:39;4.05;;;1.05;;
15482;SDS011;7843;50.330;7.312;2022-09-09T07:07:06;4.55;;;1.25;;
15482;SDS011;7843;50.330;7.312;2022-09-09T07:09:34;5.03;;;1.10;;
15482;SDS011;7843;50.330;7.312;2022-09-09T07:12:01;6.90;;;1.17;;
15482;SDS011;7843;50.330;7.312;2022-09-09T07:14:28;4.32;;;1.08;;
15482;SDS011;7843;50.330;7.312;2022-09-09T07:16:54;5.60;;;1.17;;
15482;SDS011;7843;50.330;7.312;2022-09-09T07:19:24;3.83;;;1.02;;
15482;SDS011;7843;50.330;7.312;2022-09-09T07:21:50;7.28;;;1.00;;
15482;SDS011;7843;50.330;7.312;2022-09-09T07:24:17;3.45;;;1.00;;
15482;SDS011;7843;50.330;7.312;2022-09-09T07:26:44;6.05;;;1.00;;
15482;SDS011;7843;50.330;7.312;2022-09-09T07:29:12;5.25;;;0.90;;
15482;SDS011;7843;50.330;7.312;2022-09-09T07:31:45;3.67;;;0.85;;
15482;SDS011;7843;50.330;7.312;2022-09-09T07:34:11;5.80;;;1.30;;
15482;SDS011;7843;50.330;7.312;2022-09-09T07:36:38;3.35;;;1.00;;
15482;SDS011;7843;50.330;7.312;2022-09-09T07:39:07;5.47;;;1.10;;
15482;SDS011;7843;50.330;7.312;2022-09-09T07:41:38;4.68;;;1.05;;
15482;SDS011;7843;50.330;7.312;2022-09-09T07:44:09;5.32;;;1.50;;
15482;SDS011;7843;50.330;7.312;2022-09-09T07:46:38;5.35;;;0.90;;
15482;SDS011;7843;50.330;7.312;2022-09-09T07:49:06;3.63;;;0.90;;
15482;SDS011;7843;50.330;7.312;2022-09-09T07:51:36;6.00;;;1.20;;
15482;SDS011;7843;50.330;7.312;2022-09-09T07:54:07;6.82;;;1.00;;
15482;SDS011;7843;50.330;7.312;2022-09-09T07:56:37;5.93;;;1.50;;
15482;SDS011;7843;50.330;7.312;2022-09-09T07:59:05;4.70;;;1.10;;
15482;SDS011;7843;50.330;7.312;2022-09-09T08:01:34;5.07;;;1.30;;
15482;SDS011;7843;50.330;7.312;2022-09-09T08:04:12;5.60;;;1.05;;
15482;SDS011;7843;50.330;7.312;2022-09-09T08:06:46;4.97;;;1.20;;
15482;SDS011;7843;50.330;7.312;2022-09-09T08:09:19;4.65;;;0.80;;
15482;SDS011;7843;50.330;7.312;2022-09-09T08:11:46;4.20;;;0.90;;
15482;SDS011;7843;50.330;7.312;2022-09-09T08:14:14;9.43;;;0.93;;
15482;SDS011;7843;50.330;7.312;2022-09-09T08:16:41;5.22;;;1.00;;
15482;SDS011;7843;50.330;7.312;2022-09-09T08:19:10;2.05;;;0.70;;
15482;SDS011;7843;50.330;7.312;2022-09-09T08:21:38;4.18;;;0.98;;
15482;SDS011;7843;50.330;7.312;2022-09-09T08:24:06;5.20;;;0.88;;
15482;SDS011;7843;50.330;7.312;2022-09-09T08:26:35;5.05;;;1.00;;
15482;SDS011;7843;50.330;7.312;2022-09-09T08:29:08;4.55;;;1.10;;
15482;SDS011;7843;50.330;7.312;2022-09-09T08:31:44;6.07;;;0.95;;
15482;SDS011;7843;50.330;7.312;2022-09-09T08:34:20;3.58;;;0.98;;
15482;SDS011;7843;50.330;7.312;2022-09-09T08:36:48;5.70;;;0.90;;
15482;SDS011;7843;50.330;7.312;2022-09-09T08:39:17;3.67;;;0.80;;
15482;SDS011;7843;50.330;7.312;2022-09-09T08:47:37;3.00;;;0.75;;
15482;SDS011;7843;50.330;7.312;2022-09-09T08:50:32;3.67;;;1.05;;
15482;SDS011;7843;50.330;7.312;2022-09-09T08:53:03;3.08;;;0.93;;
15482;SDS011;7843;50.330;7.312;2022-09-09T08:55:48;4.50;;;1.00;;
15482;SDS011;7843;50.330;7.312;2022-09-09T08:58:30;5.45;;;0.73;;
15482;SDS011;7843;50.330;7.312;2022-09-09T09:06:17;4.97;;;1.08;;
15482;SDS011;7843;50.330;7.312;2022-09-09T09:08:55;4.30;;;0.85;;
15482;SDS011;7843;50.330;7.312;2022-09-09T09:11:34;5.10;;;1.00;;
15482;SDS011;7843;50.330;7.312;2022-09-09T09:14:19;4.60;;;0.90;;
15482;SDS011;7843;50.330;7.312;2022-09-09T09:16:53;3.40;;;0.70;;
15482;SDS011;7843;50.330;7.312;2022-09-09T09:19:20;3.72;;;1.10;;
15482;SDS011;7843;50.330;7.312;2022-09-09T09:22:00;3.85;;;1.02;;
15482;SDS011;7843;50.330;7.312;2022-09-09T09:24:44;3.78;;;0.88;;
15482;SDS011;7843;50.330;7.312;2022-09-09T09:30:34;5.15;;;1.10;;
15482;SDS011;7843;50.330;7.312;2022-09-09T09:36:14;4.10;;;0.80;;
15482;SDS011;7843;50.330;7.312;2022-09-09T09:38:57;5.35;;;1.05;;
15482;SDS011;7843;50.330;7.312;2022-09-09T09:41:46;3.78;;;0.90;;
15482;SDS011;7843;50.330;7.312;2022-09-09T09:44:21;4.10;;;1.00;;
15482;SDS011;7843;50.330;7.312;2022-09-09T09:47:06;2.38;;;0.80;;
15482;SDS011;7843;50.330;7.312;2022-09-09T09:49:35;5.07;;;1.02;;
15482;SDS011;7843;50.330;7.312;2022-09-09T09:52:02;2.75;;;0.90;;
15482;SDS011;7843;50.330;7.312;2022-09-09T09:54:37;5.68;;;1.10;;
15482;SDS011;7843;50.330;7.312;2022-09-09T09:57:12;7.97;;;1.00;;
15482;SDS011;7843;50.330;7.312;2022-09-09T09:59:41;4.32;;;1.08;;
15482;SDS011;7843;50.330;7.312;2022-09-09T10:04:42;4.67;;;1.47;;
15482;SDS011;7843;50.330;7.312;2022-09-09T10:07:18;2.92;;;0.90;;
15482;SDS011;7843;50.330;7.312;2022-09-09T10:09:56;3.65;;;0.98;;
15482;SDS011;7843;50.330;7.312;2022-09-09T10:21:05;2.72;;;0.70;;
15482;SDS011;7843;50.330;7.312;2022-09-09T10:26:31;4.47;;;0.90;;
15482;SDS011;7843;50.330;7.312;2022-09-09T10:29:18;4.05;;;0.75;;
15482;SDS011;7843;50.330;7.312;2022-09-09T10:32:08;5.82;;;0.95;;
15482;SDS011;7843;50.330;7.312;2022-09-09T10:34:52;5.20;;;0.88;;
15482;SDS011;7843;50.330;7.312;2022-09-09T10:40:33;4.63;;;1.20;;
15482;SDS011;7843;50.330;7.312;2022-09-09T10:43:20;4.93;;;1.00;;
15482;SDS011;7843;50.330;7.312;2022-09-09T10:46:12;4.80;;;0.73;;
15482;SDS011;7843;50.330;7.312;2022-09-09T10:51:52;2.97;;;0.90;;
15482;SDS011;7843;50.330;7.312;2022-09-09T10:54:40;2.30;;;0.63;;
15482;SDS011;7843;50.330;7.312;2022-09-09T10:57:17;3.67;;;0.90;;
15482;SDS011;7843;50.330;7.312;2022-09-09T11:00:02;4.22;;;1.10;;
15482;SDS011;7843;50.330;7.312;2022-09-09T11:02:32;3.58;;;1.40;;
15482;SDS011;7843;50.330;7.312;2022-09-09T11:05:04;3.45;;;0.90;;
15482;SDS011;7843;50.330;7.312;2022-09-09T11:07:40;2.63;;;0.70;;
15482;SDS011;7843;50.330;7.312;2022-09-09T11:13:09;4.03;;;0.70;;
15482;SDS011;7843;50.330;7.312;2022-09-09T11:15:43;4.05;;;0.77;;
15482;SDS011;7843;50.330;7.312;2022-09-09T11:18:19;4.28;;;0.93;;
15482;SDS011;7843;50.330;7.312;2022-09-09T11:20:48;3.00;;;0.60;;
15482;SDS011;7843;50.330;7.312;2022-09-09T11:23:23;2.58;;;0.60;;
15482;SDS011;7843;50.330;7.312;2022-09-09T11:25:55;2.72;;;0.70;;
15482;SDS011;7843;50.330;7.312;2022-09-09T11:28:32;2.88;;;0.60;;
15482;SDS011;7843;50.330;7.312;2022-09-09T11:31:27;3.72;;;0.80;;
15482;SDS011;7843;50.330;7.312;2022-09-09T11:36:49;5.75;;;1.50;;
15482;SDS011;7843;50.330;7.312;2022-09-09T11:42:23;4.47;;;1.00;;
15482;SDS011;7843;50.330;7.312;2022-09-09T11:44:51;4.18;;;1.00;;
15482;SDS011;7843;50.330;7.312;2022-09-09T11:47:27;2.55;;;0.75;;
15482;SDS011;7843;50.330;7.312;2022-09-09T11:52:42;2.67;;;0.70;;
15482;SDS011;7843;50.330;7.312;2022-09-09T12:06:25;3.53;;;0.80;;
15482;SDS011;7843;50.330;7.312;2022-09-09T12:09:04;3.70;;;0.90;;
15482;SDS011;7843;50.330;7.312;2022-09-09T12:11:36;3.22;;;0.80;;
15482;SDS011;7843;50.330;7.312;2022-09-09T12:14:03;2.45;;;0.98;;
15482;SDS011;7843;50.330;7.312;2022-09-09T12:16:31;3.13;;;0.80;;
15482;SDS011;7843;50.330;7.312;2022-09-09T12:19:18;3.10;;;0.80;;
15482;SDS011;7843;50.330;7.312;2022-09-09T12:21:51;3.15;;;0.80;;
15482;SDS011;7843;50.330;7.312;2022-09-09T12:24:30;4.13;;;1.00;;
15482;SDS011;7843;50.330;7.312;2022-09-09T12:30:36;4.18;;;0.70;;
15482;SDS011;7843;50.330;7.312;2022-09-09T12:33:17;2.95;;;0.60;;
15482;SDS011;7843;50.330;7.312;2022-09-09T12:35:46;3.50;;;0.80;;
15482;SDS011;7843;50.330;7.312;2022-09-09T12:38:32;2.25;;;0.60;;
15482;SDS011;7843;50.330;7.312;2022-09-09T12:41:01;2.25;;;0.68;;
15482;SDS011;7843;50.330;7.312;2022-09-09T12:43:29;2.47;;;1.00;;
15482;SDS011;7843;50.330;7.312;2022-09-09T12:45:57;4.15;;;0.68;;
15482;SDS011;7843;50.330;7.312;2022-09-09T12:48:29;2.28;;;0.70;;
15482;SDS011;7843;50.330;7.312;2022-09-09T12:50:59;1.63;;;0.47;;
15482;SDS011;7843;50.330;7.312;2022-09-09T12:53:31;2.55;;;0.63;;
15482;SDS011;7843;50.330;7.312;2022-09-09T12:56:03;2.78;;;0.50;;
15482;SDS011;7843;50.330;7.312;2022-09-09T12:58:33;2.60;;;0.50;;
15482;SDS011;7843;50.330;7.312;2022-09-09T13:01:02;2.77;;;0.70;;
15482;SDS011;7843;50.330;7.312;2022-09-09T13:03:31;3.03;;;0.52;;
15482;SDS011;7843;50.330;7.312;2022-09-09T13:06:13;1.90;;;0.60;;
15482;SDS011;7843;50.330;7.312;2022-09-09T13:08:54;2.30;;;0.55;;
15482;SDS011;7843;50.330;7.312;2022-09-09T13:14:01;4.28;;;0.73;;
15482;SDS011;7843;50.330;7.312;2022-09-09T13:16:29;1.40;;;0.40;;
15482;SDS011;7843;50.330;7.312;2022-09-09T13:18:59;2.13;;;0.52;;
15482;SDS011;7843;50.330;7.312;2022-09-09T13:21:35;4.45;;;1.10;;
15482;SDS011;7843;50.330;7.312;2022-09-09T13:24:04;2.15;;;0.50;;
15482;SDS011;7843;50.330;7.312;2022-09-09T13:27:00;1.88;;;0.50;;
15482;SDS011;7843;50.330;7.312;2022-09-09T13:29:52;1.48;;;0.55;;
15482;SDS011;7843;50.330;7.312;2022-09-09T13:32:23;3.22;;;0.90;;
15482;SDS011;7843;50.330;7.312;2022-09-09T13:34:56;4.55;;;0.60;;
15482;SDS011;7843;50.330;7.312;2022-09-09T13:37:35;3.57;;;0.50;;
15482;SDS011;7843;50.330;7.312;2022-09-09T13:40:04;2.05;;;0.70;;
15482;SDS011;7843;50.330;7.312;2022-09-09T13:42:32;1.13;;;0.50;;
15482;SDS011;7843;50.330;7.312;2022-09-09T13:45:05;3.63;;;0.70;;
15482;SDS011;7843;50.330;7.312;2022-09-09T13:47:36;2.78;;;0.88;;
15482;SDS011;7843;50.330;7.312;2022-09-09T13:53:02;2.58;;;0.57;;
15482;SDS011;7843;50.330;7.312;2022-09-09T13:55:30;1.40;;;0.50;;
15482;SDS011;7843;50.330;7.312;2022-09-09T14:00:31;1.95;;;0.40;;
15482;SDS011;7843;50.330;7.312;2022-09-09T14:03:01;2.63;;;0.65;;
15482;SDS011;7843;50.330;7.312;2022-09-09T14:05:29;2.15;;;0.60;;
15482;SDS011;7843;50.330;7.312;2022-09-09T14:07:58;2.30;;;0.60;;
15482;SDS011;7843;50.330;7.312;2022-09-09T14:10:26;1.67;;;0.60;;
15482;SDS011;7843;50.330;7.312;2022-09-09T14:12:53;6.53;;;0.70;;
15482;SDS011;7843;50.330;7.312;2022-09-09T14:15:20;8.27;;;1.70;;
15482;SDS011;7843;50.330;7.312;2022-09-09T14:17:47;9.73;;;1.70;;
15482;SDS011;7843;50.330;7.312;2022-09-09T14:20:14;3.55;;;0.85;;
15482;SDS011;7843;50.330;7.312;2022-09-09T14:22:43;1.17;;;0.60;;
15482;SDS011;7843;50.330;7.312;2022-09-09T14:25:10;1.55;;;0.30;;
15482;SDS011;7843;50.330;7.312;2022-09-09T14:27:39;8.20;;;0.40;;
15482;SDS011;7843;50.330;7.312;2022-09-09T14:30:06;1.20;;;0.40;;
15482;SDS011;7843;50.330;7.312;2022-09-09T14:32:34;8.40;;;1.10;;
15482;SDS011;7843;50.330;7.312;2022-09-09T14:35:00;1.50;;;0.30;;
15482;SDS011;7843;50.330;7.312;2022-09-09T14:37:27;0.50;;;0.30;;
15482;SDS011;7843;50.330;7.312;2022-09-09T14:39:54;2.22;;;0.20;;
15482;SDS011;7843;50.330;7.312;2022-09-09T14:42:21;2.40;;;0.50;;
15482;SDS011;7843;50.330;7.312;2022-09-09T14:44:48;0.30;;;0.20;;
15482;SDS011;7843;50.330;7.312;2022-09-09T14:47:14;0.10;;;0.10;;
15482;SDS011;7843;50.330;7.312;2022-09-09T14:49:41;1.48;;;0.10;;
15482;SDS011;7843;50.330;7.312;2022-09-09T14:52:08;0.68;;;0.13;;
15482;SDS011;7843;50.330;7.312;2022-09-09T14:54:35;0.38;;;0.28;;
15482;SDS011;7843;50.330;7.312;2022-09-09T14:57:02;0.60;;;0.30;;
15482;SDS011;7843;50.330;7.312;2022-09-09T14:59:29;0.43;;;0.13;;
15482;SDS011;7843;50.330;7.312;2022-09-09T15:01:55;0.70;;;0.30;;
15482;SDS011;7843;50.330;7.312;2022-09-09T15:04:22;1.50;;;0.32;;
15482;SDS011;7843;50.330;7.312;2022-09-09T15:06:50;0.40;;;0.20;;
15482;SDS011;7843;50.330;7.312;2022-09-09T15:09:18;1.90;;;0.40;;
15482;SDS011;7843;50.330;7.312;2022-09-09T15:11:45;1.50;;;0.50;;
15482;SDS011;7843;50.330;7.312;2022-09-09T15:14:11;0.40;;;0.20;;
15482;SDS011;7843;50.330;7.312;2022-09-09T15:16:38;0.23;;;0.20;;
15482;SDS011;7843;50.330;7.312;2022-09-09T15:19:06;0.80;;;0.30;;
15482;SDS011;7843;50.330;7.312;2022-09-09T15:21:34;0.30;;;0.30;;
15482;SDS011;7843;50.330;7.312;2022-09-09T15:24:01;0.43;;;0.10;;
15482;SDS011;7843;50.330;7.312;2022-09-09T15:26:28;0.43;;;0.25;;
15482;SDS011;7843;50.330;7.312;2022-09-09T15:28:56;1.00;;;0.25;;
15482;SDS011;7843;50.330;7.312;2022-09-09T15:31:27;0.60;;;0.40;;
15482;SDS011;7843;50.330;7.312;2022-09-09T15:33:56;0.30;;;0.20;;
15482;SDS011;7843;50.330;7.312;2022-09-09T15:38:59;2.42;;;0.43;;
15482;SDS011;7843;50.330;7.312;2022-09-09T15:41:27;1.65;;;0.30;;
15482;SDS011;7843;50.330;7.312;2022-09-09T15:43:55;2.67;;;0.40;;
15482;SDS011;7843;50.330;7.312;2022-09-09T15:49:19;1.02;;;0.40;;
15482;SDS011;7843;50.330;7.312;2022-09-09T15:51:52;1.95;;;0.30;;
15482;SDS011;7843;50.330;7.312;2022-09-09T15:54:20;1.42;;;0.43;;
15482;SDS011;7843;50.330;7.312;2022-09-09T15:56:52;1.77;;;0.40;;
15482;SDS011;7843;50.330;7.312;2022-09-09T15:59:24;1.85;;;0.40;;
15482;SDS011;7843;50.330;7.312;2022-09-09T16:01:52;0.77;;;0.30;;
15482;SDS011;7843;50.330;7.312;2022-09-09T16:04:19;1.63;;;0.40;;
15482;SDS011;7843;50.330;7.312;2022-09-09T16:06:56;3.00;;;0.65;;
15482;SDS011;7843;50.330;7.312;2022-09-09T16:09:28;1.73;;;0.47;;
15482;SDS011;7843;50.330;7.312;2022-09-09T16:11:55;1.47;;;0.47;;
15482;SDS011;7843;50.330;7.312;2022-09-09T16:14:24;2.63;;;0.60;;
15482;SDS011;7843;50.330;7.312;2022-09-09T16:16:51;2.78;;;0.60;;
15482;SDS011;7843;50.330;7.312;2022-09-09T16:19:18;1.50;;;0.55;;
15482;SDS011;7843;50.330;7.312;2022-09-09T16:21:46;2.22;;;0.60;;
15482;SDS011;7843;50.330;7.312;2022-09-09T16:24:15;1.00;;;0.30;;
15482;SDS011;7843;50.330;7.312;2022-09-09T16:26:47;2.92;;;0.70;;
15482;SDS011;7843;50.330;7.312;2022-09-09T16:29:16;3.10;;;0.70;;
15482;SDS011;7843;50.330;7.312;2022-09-09T16:31:47;0.88;;;0.40;;
15482;SDS011;7843;50.330;7.312;2022-09-09T16:34:15;2.97;;;0.50;;
15482;SDS011;7843;50.330;7.312;2022-09-09T16:36:43;1.58;;;0.32;;
15482;SDS011;7843;50.330;7.312;2022-09-09T16:39:11;2.05;;;0.40;;
15482;SDS011;7843;50.330;7.312;2022-09-09T16:41:40;3.87;;;0.63;;
15482;SDS011;7843;50.330;7.312;2022-09-09T16:44:09;2.42;;;0.60;;
15482;SDS011;7843;50.330;7.312;2022-09-09T16:46:37;0.90;;;0.50;;
15482;SDS011;7843;50.330;7.312;2022-09-09T16:49:06;2.57;;;0.73;;
15482;SDS011;7843;50.330;7.312;2022-09-09T16:51:45;1.80;;;0.50;;
15482;SDS011;7843;50.330;7.312;2022-09-09T16:54:14;1.75;;;0.47;;
15482;SDS011;7843;50.330;7.312;2022-09-09T16:56:42;3.25;;;0.80;;
15482;SDS011;7843;50.330;7.312;2022-09-09T16:59:13;2.72;;;0.80;;
15482;SDS011;7843;50.330;7.312;2022-09-09T17:01:42;2.15;;;0.93;;
15482;SDS011;7843;50.330;7.312;2022-09-09T17:04:11;1.80;;;0.65;;
15482;SDS011;7843;50.330;7.312;2022-09-09T17:06:39;1.05;;;0.63;;
15482;SDS011;7843;50.330;7.312;2022-09-09T17:09:09;1.55;;;0.80;;
15482;SDS011;7843;50.330;7.312;2022-09-09T17:11:37;2.17;;;0.70;;
15482;SDS011;7843;50.330;7.312;2022-09-09T17:14:05;1.75;;;0.70;;
15482;SDS011;7843;50.330;7.312;2022-09-09T17:16:35;2.17;;;0.70;;
15482;SDS011;7843;50.330;7.312;2022-09-09T17:19:03;1.70;;;0.77;;